Time;durP1;ratioP1;P1;durP2;ratioP2;P2;SDS_P1;SDS_P2;PMS_P1;PMS_P2;Temp;Humidity;BMP_temperature;BMP_pressure;BME280_temperature;BME280_humidity;BME280_pressure;Samples;Min_cycle;Max_cycle;Signal;HPM_P1;HPM_P2
2023/05/26 00:01:14;;;;;;;;;;;8.10;99.90;;;;;;5101647;28;19931;-78
2023/05/26 00:03:44;;;;;;;;;;;8.10;99.90;;;;;;5067137;28;20362;-78
2023/05/26 00:06:11;;;;;;;;;;;8.10;99.90;;;;;;5068204;28;20052;-78
2023/05/26 00:08:37;;;;;;;;;;;8.00;99.90;;;;;;5083591;28;19924;-78
2023/05/26 00:11:03;;;;;;;;;;;8.00;99.90;;;;;;5067721;28;19928;-79
2023/05/26 00:13:29;;;;;;;;;;;8.00;99.90;;;;;;5050368;28;20037;-78
2023/05/26 00:15:54;;;;;;;;;;;7.90;99.90;;;;;;5067781;28;19931;-78
2023/05/26 00:18:20;;;;;;;;;;;7.90;99.90;;;;;;5067702;28;19931;-78
2023/05/26 00:20:45;;;;;;;;;;;7.90;99.90;;;;;;5083696;28;19968;-78
2023/05/26 00:23:11;;;;;;;;;;;7.80;99.90;;;;;;5068332;28;19924;-78
2023/05/26 00:25:37;;;;;;;;;;;7.90;99.90;;;;;;5066523;28;20523;-78
2023/05/26 00:28:02;;;;;;;;;;;7.80;99.90;;;;;;5067852;28;19931;-78
2023/05/26 00:30:28;;;;;;;;;;;7.80;99.90;;;;;;5066678;28;19928;-78
2023/05/26 00:32:53;;;;;;;;;;;7.80;99.90;;;;;;5084152;28;19932;-78
2023/05/26 00:35:19;;;;;;;;;;;7.70;99.90;;;;;;5061522;28;20267;-78
2023/05/26 00:37:45;;;;;;;;;;;7.70;99.90;;;;;;5057401;28;19984;-78
2023/05/26 00:40:11;;;;;;;;;;;7.70;99.90;;;;;;5062946;28;19928;-78
2023/05/26 00:42:37;;;;;;;;;;;7.70;99.90;;;;;;5082868;28;19935;-78
2023/05/26 00:45:02;;;;;;;;;;;7.60;99.90;;;;;;5067773;28;19924;-78
2023/05/26 00:47:28;;;;;;;;;;;7.60;99.90;;;;;;5082854;28;20572;-78
2023/05/26 00:49:53;;;;;;;;;;;7.60;99.90;;;;;;5056379;28;19935;-78
2023/05/26 00:52:19;;;;;;;;;;;7.60;99.90;;;;;;5081825;28;19924;-78
2023/05/26 00:54:45;;;;;;;;;;;7.60;99.90;;;;;;5083353;28;19947;-78
2023/05/26 00:57:10;;;;;;;;;;;7.50;99.90;;;;;;5067312;28;19931;-78
2023/05/26 00:59:36;;;;;;;;;;;7.50;99.90;;;;;;5065940;28;19928;-78
2023/05/26 01:02:02;;;;;;;;;;;7.50;99.90;;;;;;5063768;28;19928;-78
2023/05/26 01:04:29;;;;;;;;;;;7.40;99.90;;;;;;5078873;28;19950;-78
2023/05/26 01:06:55;;;;;;;;;;;7.40;99.90;;;;;;5063712;28;19925;-78
2023/05/26 01:09:22;;;;;;;;;;;7.40;99.90;;;;;;5062461;28;19935;-78
2023/05/26 01:11:50;;;;;;;;;;;7.30;99.90;;;;;;5063292;28;20336;-78
2023/05/26 01:14:20;;;;;;;;;;;7.40;99.90;;;;;;5063555;28;19936;-78
2023/05/26 01:16:51;;;;;;;;;;;7.30;99.90;;;;;;5062325;28;19940;-78
2023/05/26 01:19:19;;;;;;;;;;;7.30;99.90;;;;;;5080278;28;20007;-78
2023/05/26 01:21:47;;;;;;;;;;;7.20;99.90;;;;;;5078671;28;19951;-78
2023/05/26 01:24:16;;;;;;;;;;;7.10;99.90;;;;;;5080078;28;19960;-78
2023/05/26 01:26:48;;;;;;;;;;;7.10;99.90;;;;;;5079466;28;19924;-78
2023/05/26 01:29:15;;;;;;;;;;;7.00;99.90;;;;;;5062857;28;19925;-78
2023/05/26 01:31:41;;;;;;;;;;;7.00;99.90;;;;;;5081089;28;19932;-78
2023/05/26 01:34:06;;;;;;;;;;;7.00;99.90;;;;;;5098449;28;20339;-78
2023/05/26 01:36:32;;;;;;;;;;;6.90;99.90;;;;;;5095906;28;19955;-78
2023/05/26 01:38:59;;;;;;;;;;;6.90;99.90;;;;;;5084707;28;20411;-78
2023/05/26 01:41:30;;;;;;;;;;;6.80;99.90;;;;;;5083022;28;19957;-78
2023/05/26 01:44:04;;;;;;;;;;;6.90;99.90;;;;;;5103126;28;19986;-78
2023/05/26 01:46:38;;;;;;;;;;;6.80;99.90;;;;;;5098950;28;20405;-78
2023/05/26 01:49:05;;;;;;;;;;;6.80;99.90;;;;;;5086514;28;19924;-78
2023/05/26 01:51:32;;;;;;;;;;;6.70;99.90;;;;;;5068914;28;19960;-78
2023/05/26 01:53:59;;;;;;;;;;;6.70;99.90;;;;;;5098379;28;20285;-79
2023/05/26 01:56:25;;;;;;;;;;;6.70;99.90;;;;;;5098947;28;19924;-78
2023/05/26 01:58:51;;;;;;;;;;;6.60;99.90;;;;;;5099139;28;19924;-78
2023/05/26 02:01:17;;;;;;;;;;;6.60;99.90;;;;;;5083014;28;19978;-77
2023/05/26 02:03:43;;;;;;;;;;;6.70;99.90;;;;;;5098135;28;20394;-78
2023/05/26 02:06:09;;;;;;;;;;;6.60;99.90;;;;;;5082293;28;19928;-78
2023/05/26 02:08:36;;;;;;;;;;;6.60;99.90;;;;;;5068555;28;19973;-78
2023/05/26 02:11:01;;;;;;;;;;;6.60;99.90;;;;;;5081421;28;19970;-78
2023/05/26 02:13:27;;;;;;;;;;;6.60;99.90;;;;;;5081633;28;19928;-78
2023/05/26 02:15:53;;;;;;;;;;;6.50;99.90;;;;;;5098769;28;19954;-78
2023/05/26 02:18:21;;;;;;;;;;;6.50;99.90;;;;;;5082543;28;19975;-78
2023/05/26 02:20:47;;;;;;;;;;;6.60;99.90;;;;;;5098682;28;19924;-78
2023/05/26 02:23:12;;;;;;;;;;;6.50;99.90;;;;;;5092121;28;19950;-78
2023/05/26 02:25:38;;;;;;;;;;;6.50;99.90;;;;;;5074182;28;19932;-78
2023/05/26 02:28:04;;;;;;;;;;;6.50;99.90;;;;;;5098934;28;19971;-78
2023/05/26 02:30:29;;;;;;;;;;;6.50;99.90;;;;;;5087083;28;19954;-77
2023/05/26 02:32:55;;;;;;;;;;;6.40;99.90;;;;;;5129341;27;19924;-78
2023/05/26 02:35:20;;;;;;;;;;;6.40;99.90;;;;;;5132285;27;19924;-77
2023/05/26 02:37:47;;;;;;;;;;;6.40;99.90;;;;;;5098173;28;19987;-78
2023/05/26 02:40:13;;;;;;;;;;;6.40;99.90;;;;;;5099068;28;19924;-77
2023/05/26 02:42:38;;;;;;;;;;;6.40;99.90;;;;;;5085031;28;19935;-78
2023/05/26 02:45:04;;;;;;;;;;;6.40;99.90;;;;;;5066157;28;19931;-78
2023/05/26 02:47:30;;;;;;;;;;;6.40;99.90;;;;;;5097960;28;19928;-77
2023/05/26 02:49:55;;;;;;;;;;;6.30;99.90;;;;;;5081553;28;19963;-78
2023/05/26 02:52:22;;;;;;;;;;;6.30;99.90;;;;;;5090081;28;19936;-78
2023/05/26 02:54:48;;;;;;;;;;;6.30;99.90;;;;;;5091830;28;19932;-78
2023/05/26 02:57:13;;;;;;;;;;;6.30;99.90;;;;;;5115811;28;19935;-78
2023/05/26 02:59:39;;;;;;;;;;;6.30;99.90;;;;;;5097643;28;19968;-77
2023/05/26 03:02:05;;;;;;;;;;;6.30;99.90;;;;;;5098285;28;19932;-78
2023/05/26 03:04:30;;;;;;;;;;;6.20;99.90;;;;;;5086915;28;20020;-78
2023/05/26 03:06:56;;;;;;;;;;;6.20;99.90;;;;;;5077008;28;19925;-78
2023/05/26 03:09:21;;;;;;;;;;;6.20;99.90;;;;;;5097913;28;19924;-78
2023/05/26 03:11:47;;;;;;;;;;;6.20;99.90;;;;;;5097733;28;19933;-78
2023/05/26 03:14:12;;;;;;;;;;;6.20;99.90;;;;;;5101147;28;19924;-77
2023/05/26 03:16:38;;;;;;;;;;;6.20;99.90;;;;;;5097275;28;19932;-78
2023/05/26 03:19:03;;;;;;;;;;;6.20;99.90;;;;;;5098500;28;20388;-78
2023/05/26 03:21:30;;;;;;;;;;;6.30;99.90;;;;;;5063407;28;19924;-78
2023/05/26 03:23:55;;;;;;;;;;;6.30;99.90;;;;;;5081037;28;19924;-78
2023/05/26 03:26:22;;;;;;;;;;;6.40;99.90;;;;;;5080468;28;19932;-77
2023/05/26 03:28:47;;;;;;;;;;;6.40;99.90;;;;;;5097716;28;20169;-77
2023/05/26 03:31:13;;;;;;;;;;;6.50;99.90;;;;;;5075277;28;19924;-77
2023/05/26 03:33:38;;;;;;;;;;;6.50;99.90;;;;;;5088925;28;19928;-77
2023/05/26 03:36:05;;;;;;;;;;;6.50;99.90;;;;;;5081170;28;20290;-77
2023/05/26 03:38:30;;;;;;;;;;;6.60;99.90;;;;;;5096796;28;19946;-78
2023/05/26 03:40:56;;;;;;;;;;;6.60;99.90;;;;;;5114803;28;19924;-77
2023/05/26 03:43:22;;;;;;;;;;;6.70;99.90;;;;;;5079922;28;19935;-77
2023/05/26 03:45:47;;;;;;;;;;;6.70;99.90;;;;;;5097819;28;19931;-77
2023/05/26 03:48:13;;;;;;;;;;;6.80;99.90;;;;;;5098300;28;19931;-77
2023/05/26 03:50:39;;;;;;;;;;;6.90;99.90;;;;;;5076687;28;19929;-78
2023/05/26 03:53:05;;;;;;;;;;;6.90;99.90;;;;;;5092343;28;19924;-77
2023/05/26 03:55:33;;;;;;;;;;;6.90;99.90;;;;;;5096348;28;19924;-77
2023/05/26 03:57:59;;;;;;;;;;;7.00;99.90;;;;;;5098272;28;19967;-77
2023/05/26 04:00:28;;;;;;;;;;;7.10;99.90;;;;;;5096557;28;20383;-77
2023/05/26 04:02:54;;;;;;;;;;;7.10;99.90;;;;;;5097328;28;19991;-78
2023/05/26 04:05:20;;;;;;;;;;;7.10;99.90;;;;;;5082564;28;19939;-77
2023/05/26 04:07:46;;;;;;;;;;;7.20;99.90;;;;;;5080122;28;19924;-78
2023/05/26 04:10:11;;;;;;;;;;;7.20;99.90;;;;;;5098121;28;19928;-77
2023/05/26 04:12:37;;;;;;;;;;;7.30;99.90;;;;;;5096248;28;19924;-78
2023/05/26 04:15:03;;;;;;;;;;;7.30;99.90;;;;;;5084869;28;19928;-78
2023/05/26 04:17:29;;;;;;;;;;;7.40;99.90;;;;;;5078995;28;20387;-78
2023/05/26 04:19:55;;;;;;;;;;;7.40;99.90;;;;;;5080788;28;19924;-78
2023/05/26 04:22:20;;;;;;;;;;;7.50;99.90;;;;;;5080137;28;19924;-78
2023/05/26 04:24:46;;;;;;;;;;;7.50;99.90;;;;;;5080533;28;19924;-78
2023/05/26 04:27:12;;;;;;;;;;;7.50;99.90;;;;;;5080765;28;20394;-77
2023/05/26 04:29:38;;;;;;;;;;;7.50;99.90;;;;;;5079641;28;19934;-78
2023/05/26 04:32:04;;;;;;;;;;;7.60;99.90;;;;;;5081153;28;19935;-78
2023/05/26 04:34:30;;;;;;;;;;;7.70;99.90;;;;;;5079226;28;20010;-78
2023/05/26 04:36:56;;;;;;;;;;;7.70;99.90;;;;;;5096995;28;19939;-78
2023/05/26 04:39:21;;;;;;;;;;;7.80;99.90;;;;;;5113797;28;19924;-78
2023/05/26 04:41:47;;;;;;;;;;;7.80;99.90;;;;;;5080059;28;19924;-78
2023/05/26 04:44:13;;;;;;;;;;;7.90;99.90;;;;;;5080713;28;19931;-77
2023/05/26 04:46:38;;;;;;;;;;;7.90;99.90;;;;;;5099373;28;19928;-78
2023/05/26 04:49:04;;;;;;;;;;;7.90;99.90;;;;;;5084577;28;19975;-79
2023/05/26 04:51:32;;;;;;;;;;;8.00;99.90;;;;;;5082983;28;20395;-78
2023/05/26 04:53:58;;;;;;;;;;;8.10;99.90;;;;;;5100845;28;19928;-78
2023/05/26 04:56:23;;;;;;;;;;;8.30;99.90;;;;;;5086849;28;19924;-78
2023/05/26 04:58:49;;;;;;;;;;;8.40;99.90;;;;;;5116489;28;20005;-78
2023/05/26 05:01:17;;;;;;;;;;;8.50;99.90;;;;;;5118104;27;19930;-78
2023/05/26 05:03:43;;;;;;;;;;;8.50;99.90;;;;;;5082376;28;19935;-78
2023/05/26 05:06:09;;;;;;;;;;;8.60;99.90;;;;;;5100571;27;19932;-78
2023/05/26 05:08:36;;;;;;;;;;;8.70;99.90;;;;;;5099306;28;19928;-78
2023/05/26 05:11:02;;;;;;;;;;;9.10;99.90;;;;;;5100467;28;19930;-78
2023/05/26 05:13:28;;;;;;;;;;;9.60;99.90;;;;;;5099669;28;19928;-78
2023/05/26 05:15:54;;;;;;;;;;;10.00;99.90;;;;;;5083322;28;19935;-79
2023/05/26 05:18:19;;;;;;;;;;;10.40;99.90;;;;;;5083403;28;19950;-79
2023/05/26 05:20:45;;;;;;;;;;;10.70;99.90;;;;;;5082286;28;20010;-79
2023/05/26 05:23:10;;;;;;;;;;;11.10;99.90;;;;;;5100965;28;19924;-79
2023/05/26 05:25:36;;;;;;;;;;;11.30;99.90;;;;;;5099209;28;19924;-79
2023/05/26 05:28:02;;;;;;;;;;;11.60;99.90;;;;;;5092311;28;19959;-79
2023/05/26 05:30:28;;;;;;;;;;;11.90;99.90;;;;;;5076560;28;19931;-78
2023/05/26 05:32:53;;;;;;;;;;;12.20;99.90;;;;;;5099548;28;19931;-78
2023/05/26 05:35:19;;;;;;;;;;;12.40;99.90;;;;;;5082781;28;19962;-79
2023/05/26 05:37:44;;;;;;;;;;;12.70;99.90;;;;;;5099308;28;20026;-79
2023/05/26 05:40:10;;;;;;;;;;;12.90;99.90;;;;;;5100481;28;19928;-79
2023/05/26 05:42:36;;;;;;;;;;;13.10;99.90;;;;;;5098658;28;20357;-79
2023/05/26 05:45:02;;;;;;;;;;;13.30;99.90;;;;;;5085805;28;19932;-79
2023/05/26 05:47:27;;;;;;;;;;;13.50;99.90;;;;;;5081922;28;19924;-79
2023/05/26 05:49:53;;;;;;;;;;;13.60;99.90;;;;;;5099419;28;19959;-79
2023/05/26 05:52:18;;;;;;;;;;;13.80;99.90;;;;;;5099328;28;19928;-78
2023/05/26 05:54:44;;;;;;;;;;;14.10;99.90;;;;;;5082371;28;19924;-79
2023/05/26 05:57:09;;;;;;;;;;;14.00;99.90;;;;;;5068010;28;19968;-79
2023/05/26 05:59:35;;;;;;;;;;;14.00;99.90;;;;;;5098316;28;19946;-79
2023/05/26 06:02:01;;;;;;;;;;;14.10;99.90;;;;;;5085326;28;19923;-78
2023/05/26 06:04:26;;;;;;;;;;;14.20;99.90;;;;;;5084995;28;19930;-78
2023/05/26 06:06:52;;;;;;;;;;;14.10;99.90;;;;;;5085364;28;19924;-79
2023/05/26 06:09:18;;;;;;;;;;;14.10;99.90;;;;;;5102348;28;19927;-80
2023/05/26 06:11:43;;;;;;;;;;;14.10;99.90;;;;;;5085421;28;19924;-79
2023/05/26 06:14:09;;;;;;;;;;;14.30;99.90;;;;;;5085868;28;20376;-79
2023/05/26 06:16:34;;;;;;;;;;;14.40;99.90;;;;;;5101423;28;19930;-79
2023/05/26 06:19:00;;;;;;;;;;;14.70;99.90;;;;;;5085834;28;20014;-79
2023/05/26 06:21:25;;;;;;;;;;;14.80;99.90;;;;;;5101802;28;19924;-79
2023/05/26 06:23:52;;;;;;;;;;;15.10;99.90;;;;;;5068945;28;19966;-79
2023/05/26 06:26:18;;;;;;;;;;;15.00;99.90;;;;;;5101911;28;20014;-79
2023/05/26 06:28:44;;;;;;;;;;;14.90;99.90;;;;;;5085199;28;20396;-79
2023/05/26 06:31:09;;;;;;;;;;;14.90;99.90;;;;;;5085503;28;19932;-79
2023/05/26 06:33:35;;;;;;;;;;;14.90;99.90;;;;;;5084395;28;20394;-79
2023/05/26 06:36:00;;;;;;;;;;;15.00;99.90;;;;;;5102315;28;19924;-79
2023/05/26 06:38:26;;;;;;;;;;;15.00;99.90;;;;;;5101031;28;19924;-80
2023/05/26 06:40:51;;;;;;;;;;;15.10;99.90;;;;;;5085307;28;19923;-79
2023/05/26 06:43:17;;;;;;;;;;;15.20;99.90;;;;;;5084343;28;20473;-78
2023/05/26 06:45:43;;;;;;;;;;;15.30;99.90;;;;;;5101742;28;20480;-79
2023/05/26 06:48:08;;;;;;;;;;;15.50;99.90;;;;;;5102039;28;19991;-79
2023/05/26 06:50:34;;;;;;;;;;;15.40;99.90;;;;;;5068042;28;19940;-79
2023/05/26 06:52:59;;;;;;;;;;;15.30;99.90;;;;;;5085604;28;20457;-79
2023/05/26 06:55:25;;;;;;;;;;;15.20;99.90;;;;;;5099193;28;20481;-79
2023/05/26 06:57:50;;;;;;;;;;;15.40;99.90;;;;;;5092979;28;19979;-78
2023/05/26 07:00:16;;;;;;;;;;;15.50;99.90;;;;;;5100901;28;20257;-78
2023/05/26 07:02:42;;;;;;;;;;;15.50;99.90;;;;;;5084588;28;20449;-79
2023/05/26 07:05:08;;;;;;;;;;;15.50;99.90;;;;;;5053041;28;19928;-79
2023/05/26 07:07:34;;;;;;;;;;;15.50;99.90;;;;;;5100952;28;19924;-79
2023/05/26 07:09:59;;;;;;;;;;;15.30;99.90;;;;;;5101916;28;20416;-79
2023/05/26 07:12:25;;;;;;;;;;;14.90;99.90;;;;;;5083588;28;19927;-80
2023/05/26 07:14:50;;;;;;;;;;;14.50;99.90;;;;;;5084836;28;19927;-80
2023/05/26 07:17:16;;;;;;;;;;;14.30;99.90;;;;;;5066827;28;20379;-79
2023/05/26 07:19:41;;;;;;;;;;;14.60;99.90;;;;;;5084672;28;19934;-80
2023/05/26 07:22:07;;;;;;;;;;;14.80;99.90;;;;;;5053122;28;19924;-79
2023/05/26 07:24:33;;;;;;;;;;;15.20;99.90;;;;;;5101420;28;20392;-79
2023/05/26 07:26:58;;;;;;;;;;;15.10;99.90;;;;;;5084538;28;19948;-79
2023/05/26 07:29:24;;;;;;;;;;;15.10;99.90;;;;;;5083388;28;19934;-79
2023/05/26 07:31:49;;;;;;;;;;;15.40;99.90;;;;;;5101799;28;19927;-79
2023/05/26 07:34:15;;;;;;;;;;;15.60;99.90;;;;;;5099948;28;19924;-79
2023/05/26 07:36:41;;;;;;;;;;;15.80;99.90;;;;;;5084072;28;19934;-80
2023/05/26 07:39:06;;;;;;;;;;;15.70;99.90;;;;;;5067087;28;19924;-79
2023/05/26 07:41:32;;;;;;;;;;;15.50;99.90;;;;;;5101036;28;19924;-79
2023/05/26 07:43:57;;;;;;;;;;;15.40;99.90;;;;;;5084509;28;19928;-79
2023/05/26 07:46:23;;;;;;;;;;;15.30;99.90;;;;;;5100367;28;19963;-78
2023/05/26 07:48:48;;;;;;;;;;;15.10;99.90;;;;;;5084803;28;19945;-79
2023/05/26 07:51:14;;;;;;;;;;;15.10;99.90;;;;;;5099993;28;19934;-79
2023/05/26 07:53:40;;;;;;;;;;;14.90;99.90;;;;;;5084481;28;19935;-79
2023/05/26 07:56:06;;;;;;;;;;;14.90;99.90;;;;;;5083329;28;20398;-79
2023/05/26 07:58:31;;;;;;;;;;;14.80;99.90;;;;;;5084346;28;19999;-78
2023/05/26 08:00:57;;;;;;;;;;;14.90;99.90;;;;;;5100876;28;19944;-78
2023/05/26 08:03:22;;;;;;;;;;;15.10;99.90;;;;;;5083158;28;19931;-78
2023/05/26 08:05:48;;;;;;;;;;;15.50;99.90;;;;;;5101180;28;19928;-78
2023/05/26 08:08:14;;;;;;;;;;;15.50;99.90;;;;;;5086890;28;19928;-78
2023/05/26 08:10:39;;;;;;;;;;;15.50;99.90;;;;;;5099925;28;19924;-78
2023/05/26 08:13:05;;;;;;;;;;;15.70;99.90;;;;;;5099798;28;19935;-79
2023/05/26 08:15:30;;;;;;;;;;;16.20;99.90;;;;;;5083868;28;19931;-79
2023/05/26 08:17:56;;;;;;;;;;;16.60;99.90;;;;;;5083851;28;19962;-79
2023/05/26 08:20:22;;;;;;;;;;;17.00;99.90;;;;;;5084697;28;19955;-78
2023/05/26 08:22:47;;;;;;;;;;;17.20;99.00;;;;;;5088150;28;20049;-78
2023/05/26 08:25:13;;;;;;;;;;;17.40;99.40;;;;;;5086869;28;19973;-78
2023/05/26 08:27:39;;;;;;;;;;;17.80;99.10;;;;;;5057154;28;19932;-78
2023/05/26 08:30:05;;;;;;;;;;;18.00;97.80;;;;;;5103507;28;19928;-79
2023/05/26 08:32:31;;;;;;;;;;;18.30;94.80;;;;;;5104732;28;19947;-79
2023/05/26 08:34:56;;;;;;;;;;;18.30;90.90;;;;;;5086625;28;19954;-79
2023/05/26 08:37:22;;;;;;;;;;;18.20;90.60;;;;;;5070534;28;19930;-79
2023/05/26 08:39:48;;;;;;;;;;;18.10;91.10;;;;;;5104850;28;20414;-78
2023/05/26 08:42:18;;;;;;;;;;;18.00;91.70;;;;;;5077825;28;19984;-78
2023/05/26 08:44:44;;;;;;;;;;;17.90;90.80;;;;;;5083218;28;20335;-79
2023/05/26 08:47:11;;;;;;;;;;;18.00;91.80;;;;;;5086204;28;19928;-78
2023/05/26 08:49:41;;;;;;;;;;;17.90;87.50;;;;;;5104256;28;19924;-79
2023/05/26 08:52:13;;;;;;;;;;;18.00;88.80;;;;;;5086985;28;19931;-79
2023/05/26 08:54:39;;;;;;;;;;;18.10;86.70;;;;;;5086776;28;19930;-80
2023/05/26 08:57:05;;;;;;;;;;;18.30;89.90;;;;;;5070787;28;20016;-80
2023/05/26 08:59:31;;;;;;;;;;;18.40;89.20;;;;;;5086125;28;20044;-79
2023/05/26 09:01:57;;;;;;;;;;;18.50;90.00;;;;;;5084236;28;19931;-79
2023/05/26 09:04:23;;;;;;;;;;;18.50;83.70;;;;;;5108605;28;19924;-79
2023/05/26 09:06:50;;;;;;;;;;;18.80;85.20;;;;;;5086134;28;21561;-79
2023/05/26 09:09:16;;;;;;;;;;;18.80;79.40;;;;;;5069921;28;19923;-79
2023/05/26 09:11:42;;;;;;;;;;;18.80;83.00;;;;;;5103728;28;19924;-79
2023/05/26 09:14:08;;;;;;;;;;;18.80;84.50;;;;;;5086924;28;19927;-79
2023/05/26 09:16:34;;;;;;;;;;;18.70;84.90;;;;;;5085742;28;19923;-79
2023/05/26 09:19:00;;;;;;;;;;;18.50;80.70;;;;;;5087203;28;20015;-79
2023/05/26 09:21:27;;;;;;;;;;;18.50;84.50;;;;;;5068866;28;19967;-79
2023/05/26 09:23:55;;;;;;;;;;;18.50;83.10;;;;;;5086530;28;19923;-80
2023/05/26 09:26:26;;;;;;;;;;;18.70;82.10;;;;;;5103004;28;19978;-79
2023/05/26 09:28:52;;;;;;;;;;;18.70;75.90;;;;;;5088846;28;19970;-79
2023/05/26 09:31:17;;;;;;;;;;;18.70;80.20;;;;;;5103554;28;20290;-78
2023/05/26 09:33:45;;;;;;;;;;;18.60;80.20;;;;;;5102580;28;19998;-79
2023/05/26 09:36:11;;;;;;;;;;;18.70;76.90;;;;;;5086701;28;19980;-79
2023/05/26 09:38:37;;;;;;;;;;;18.80;83.70;;;;;;5085404;28;19933;-78
2023/05/26 09:41:02;;;;;;;;;;;18.70;78.00;;;;;;5103028;28;19928;-79
2023/05/26 09:43:32;;;;;;;;;;;18.70;78.00;;;;;;5097649;28;19924;-79
2023/05/26 09:45:58;;;;;;;;;;;18.90;77.60;;;;;;5094443;28;19923;-78
2023/05/26 09:48:23;;;;;;;;;;;19.00;74.20;;;;;;5072569;28;20393;-78
2023/05/26 09:50:50;;;;;;;;;;;19.30;79.00;;;;;;5085400;28;19928;-79
2023/05/26 09:53:16;;;;;;;;;;;19.20;70.50;;;;;;5103287;28;19924;-78
2023/05/26 09:55:43;;;;;;;;;;;19.10;74.60;;;;;;5102245;28;19935;-78
2023/05/26 09:58:10;;;;;;;;;;;19.20;72.60;;;;;;5137319;27;19934;-80
2023/05/26 10:00:36;;;;;;;;;;;19.30;68.80;;;;;;5102180;28;19967;-79
2023/05/26 10:03:05;;;;;;;;;;;19.30;69.60;;;;;;5085342;28;19923;-80
2023/05/26 10:05:36;;;;;;;;;;;19.40;69.60;;;;;;5085755;28;19983;-78
2023/05/26 10:08:02;;;;;;;;;;;19.40;68.40;;;;;;5084595;28;19927;-79
2023/05/26 10:10:28;;;;;;;;;;;19.40;69.90;;;;;;5086621;28;19969;-79
2023/05/26 10:12:54;;;;;;;;;;;19.40;69.70;;;;;;5075180;28;19928;-80
2023/05/26 10:15:20;;;;;;;;;;;19.50;70.10;;;;;;5080708;28;19935;-78
2023/05/26 10:17:46;;;;;;;;;;;19.40;73.30;;;;;;5085154;28;19924;-77
2023/05/26 10:20:12;;;;;;;;;;;19.20;68.60;;;;;;5102522;28;19995;-78
2023/05/26 10:22:58;;;;;;;;;;;19.30;70.50;;;;;;5102582;28;19924;-79
2023/05/26 10:25:27;;;;;;;;;;;19.20;64.10;;;;;;5100442;28;19927;-79
2023/05/26 10:28:12;;;;;;;;;;;19.10;69.20;;;;;;5072424;28;19928;-77
2023/05/26 10:30:39;;;;;;;;;;;19.10;71.40;;;;;;5101695;28;19938;-77
2023/05/26 10:33:09;;;;;;;;;;;19.30;67.80;;;;;;5101645;28;19945;-78
2023/05/26 10:35:35;;;;;;;;;;;19.40;63.00;;;;;;5085465;28;19930;-77
2023/05/26 10:38:01;;;;;;;;;;;19.40;68.40;;;;;;5084058;28;19984;-78
2023/05/26 10:40:26;;;;;;;;;;;19.50;66.00;;;;;;5085458;28;19923;-78
2023/05/26 10:42:55;;;;;;;;;;;19.60;67.00;;;;;;5083505;28;19945;-77
2023/05/26 10:45:21;;;;;;;;;;;19.60;64.70;;;;;;5088218;28;20022;-77
2023/05/26 10:47:48;;;;;;;;;;;19.60;65.30;;;;;;5101817;28;19969;-79
2023/05/26 10:50:13;;;;;;;;;;;19.60;63.60;;;;;;5084626;28;19936;-78
2023/05/26 10:52:46;;;;;;;;;;;19.40;64.60;;;;;;5085643;28;20012;-78
2023/05/26 10:55:27;;;;;;;;;;;19.50;66.60;;;;;;5100916;28;19987;-78
2023/05/26 10:57:53;;;;;;;;;;;19.50;67.90;;;;;;5073719;28;19928;-77
2023/05/26 11:00:25;;;;;;;;;;;19.60;66.80;;;;;;5084094;28;19932;-77
2023/05/26 11:02:51;;;;;;;;;;;19.70;67.60;;;;;;5084267;28;19927;-77
2023/05/26 11:05:32;;;;;;;;;;;19.70;65.70;;;;;;5101059;28;19931;-77
2023/05/26 11:07:58;;;;;;;;;;;19.80;67.20;;;;;;5100577;28;19963;-78
2023/05/26 11:10:23;;;;;;;;;;;19.50;66.50;;;;;;5085124;28;20390;-77
2023/05/26 11:12:51;;;;;;;;;;;19.50;66.90;;;;;;5100574;28;20073;-77
2023/05/26 11:15:23;;;;;;;;;;;19.50;67.20;;;;;;5101439;28;19969;-78
2023/05/26 11:18:06;;;;;;;;;;;19.60;67.20;;;;;;5101127;28;20356;-77
2023/05/26 11:20:32;;;;;;;;;;;19.80;69.10;;;;;;5067473;28;19931;-77
2023/05/26 11:22:58;;;;;;;;;;;20.00;65.50;;;;;;5085314;28;19945;-77
2023/05/26 11:25:25;;;;;;;;;;;20.10;67.50;;;;;;5069539;28;19980;-77
2023/05/26 11:27:51;;;;;;;;;;;19.90;65.20;;;;;;5101546;28;19924;-77
2023/05/26 11:30:18;;;;;;;;;;;19.80;65.10;;;;;;5100385;28;19935;-76
2023/05/26 11:32:44;;;;;;;;;;;19.90;65.10;;;;;;5084518;28;20019;-77
2023/05/26 11:35:23;;;;;;;;;;;20.00;65.80;;;;;;5100801;28;19924;-77
2023/05/26 11:37:49;;;;;;;;;;;20.00;61.00;;;;;;5083670;28;19931;-78
2023/05/26 11:40:14;;;;;;;;;;;20.00;62.90;;;;;;5068173;28;20342;-77
2023/05/26 11:42:43;;;;;;;;;;;19.90;63.50;;;;;;5066386;28;19930;-77
2023/05/26 11:45:09;;;;;;;;;;;19.90;62.50;;;;;;5084393;28;19928;-78
2023/05/26 11:47:35;;;;;;;;;;;19.90;64.60;;;;;;5066680;28;19931;-79
2023/05/26 11:50:08;;;;;;;;;;;20.00;64.60;;;;;;5083802;28;19931;-78
2023/05/26 11:52:34;;;;;;;;;;;20.10;64.10;;;;;;5084783;28;20383;-78
2023/05/26 11:55:00;;;;;;;;;;;20.10;63.80;;;;;;5087930;28;19932;-78
2023/05/26 11:57:30;;;;;;;;;;;20.00;61.70;;;;;;5088617;28;19924;-78
2023/05/26 11:59:56;;;;;;;;;;;19.80;61.80;;;;;;5104192;28;20329;-79
2023/05/26 12:02:22;;;;;;;;;;;19.90;59.30;;;;;;5088314;28;19939;-78
2023/05/26 12:04:48;;;;;;;;;;;19.90;62.60;;;;;;5070619;28;20401;-77
2023/05/26 12:07:26;;;;;;;;;;;19.80;59.70;;;;;;5087429;28;20316;-78
2023/05/26 12:10:05;;;;;;;;;;;19.70;63.70;;;;;;5088983;28;20259;-78
2023/05/26 12:12:33;;;;;;;;;;;19.70;59.80;;;;;;5087125;28;19969;-79
2023/05/26 12:15:05;;;;;;;;;;;19.80;64.90;;;;;;5105122;28;19956;-78
2023/05/26 12:17:31;;;;;;;;;;;19.60;62.20;;;;;;5070460;28;20272;-78
2023/05/26 12:19:57;;;;;;;;;;;19.70;62.00;;;;;;5087621;28;19924;-78
2023/05/26 12:22:27;;;;;;;;;;;19.80;60.20;;;;;;5087837;28;19987;-78
2023/05/26 12:24:57;;;;;;;;;;;20.00;60.90;;;;;;5087006;28;20735;-79
2023/05/26 12:27:22;;;;;;;;;;;20.00;60.00;;;;;;5088124;28;19935;-78
2023/05/26 12:29:49;;;;;;;;;;;20.00;61.60;;;;;;5070045;28;19927;-79
2023/05/26 12:32:15;;;;;;;;;;;20.00;62.60;;;;;;5088205;28;19963;-78
2023/05/26 12:34:41;;;;;;;;;;;19.90;61.70;;;;;;5086751;28;19949;-78
2023/05/26 12:37:07;;;;;;;;;;;19.80;62.60;;;;;;5087122;28;19986;-78
2023/05/26 12:39:33;;;;;;;;;;;19.80;63.20;;;;;;5070607;28;19924;-78
2023/05/26 12:42:01;;;;;;;;;;;19.70;61.70;;;;;;5137662;27;19928;-78
2023/05/26 12:44:26;;;;;;;;;;;19.70;62.50;;;;;;5088400;28;19928;-78
2023/05/26 12:46:52;;;;;;;;;;;19.70;62.80;;;;;;5086000;28;19969;-79
2023/05/26 12:49:18;;;;;;;;;;;19.40;60.20;;;;;;5070957;28;19975;-79
2023/05/26 12:51:43;;;;;;;;;;;19.50;63.50;;;;;;5069790;28;19932;-79
2023/05/26 12:54:09;;;;;;;;;;;19.60;64.40;;;;;;5104011;28;19967;-78
2023/05/26 12:56:36;;;;;;;;;;;19.60;62.90;;;;;;5103874;28;20406;-78
2023/05/26 12:59:02;;;;;;;;;;;19.80;62.80;;;;;;5086378;28;19982;-78
2023/05/26 13:01:28;;;;;;;;;;;19.80;63.00;;;;;;5104614;28;19924;-80
2023/05/26 13:03:53;;;;;;;;;;;19.80;58.10;;;;;;5085203;28;20022;-79
2023/05/26 13:06:19;;;;;;;;;;;19.80;60.90;;;;;;5069971;28;20460;-79
2023/05/26 13:08:44;;;;;;;;;;;19.70;60.90;;;;;;5136990;27;20362;-79
2023/05/26 13:11:10;;;;;;;;;;;19.60;61.10;;;;;;5070236;28;19935;-78
2023/05/26 13:13:37;;;;;;;;;;;19.50;63.60;;;;;;5072450;28;19924;-77
2023/05/26 13:16:04;;;;;;;;;;;19.50;64.60;;;;;;5096152;28;20303;-78
2023/05/26 13:18:29;;;;;;;;;;;19.50;65.80;;;;;;5080665;28;19935;-77
2023/05/26 13:20:55;;;;;;;;;;;19.60;64.70;;;;;;5055170;28;19924;-78
2023/05/26 13:23:20;;;;;;;;;;;19.50;62.40;;;;;;5087463;28;20374;-79
2023/05/26 13:25:47;;;;;;;;;;;19.50;64.40;;;;;;5068736;28;20438;-78
2023/05/26 13:28:12;;;;;;;;;;;19.60;61.60;;;;;;5103520;28;19928;-78
2023/05/26 13:30:38;;;;;;;;;;;19.50;63.20;;;;;;5085977;28;19930;-79
2023/05/26 13:33:04;;;;;;;;;;;19.50;63.80;;;;;;5086126;28;19924;-78
2023/05/26 13:35:30;;;;;;;;;;;19.50;63.70;;;;;;5103294;28;19931;-78
2023/05/26 13:37:56;;;;;;;;;;;19.40;64.60;;;;;;5085471;28;19924;-78
2023/05/26 13:40:21;;;;;;;;;;;19.30;64.40;;;;;;5086680;28;19937;-78
2023/05/26 13:42:47;;;;;;;;;;;19.20;64.60;;;;;;5085516;28;19928;-78
2023/05/26 13:45:13;;;;;;;;;;;19.20;62.50;;;;;;5086224;28;20379;-78
2023/05/26 13:47:38;;;;;;;;;;;19.10;65.00;;;;;;5137095;27;19928;-78
2023/05/26 13:50:04;;;;;;;;;;;19.20;64.40;;;;;;5102546;28;19924;-78
2023/05/26 13:52:31;;;;;;;;;;;19.20;64.10;;;;;;5093838;28;19924;-77
2023/05/26 13:54:57;;;;;;;;;;;19.20;64.50;;;;;;5078985;28;19970;-78
2023/05/26 13:57:23;;;;;;;;;;;19.20;64.20;;;;;;5090757;28;19981;-80
2023/05/26 13:59:48;;;;;;;;;;;19.30;63.50;;;;;;5071532;28;19998;-79
2023/05/26 14:02:14;;;;;;;;;;;19.20;64.60;;;;;;5068854;28;19963;-77
2023/05/26 14:04:40;;;;;;;;;;;19.20;64.40;;;;;;5084987;28;20010;-78
2023/05/26 14:07:06;;;;;;;;;;;19.20;64.80;;;;;;5098420;28;19999;-79
2023/05/26 14:09:31;;;;;;;;;;;19.10;62.60;;;;;;5109054;28;19935;-78
2023/05/26 14:11:57;;;;;;;;;;;19.20;65.30;;;;;;5068509;28;20001;-79
2023/05/26 14:14:22;;;;;;;;;;;19.20;64.80;;;;;;5103287;28;19924;-78
2023/05/26 14:16:48;;;;;;;;;;;19.20;62.20;;;;;;5084292;28;20007;-79